createdAt,value
2022-11-18T00:01:33.251Z,48.33
2022-11-18T00:04:02.078Z,48.50
2022-11-18T00:06:31.520Z,48.52
2022-11-18T00:09:01.249Z,48.38
2022-11-18T00:11:48.303Z,48.51
2022-11-18T00:14:22.269Z,48.38
2022-11-18T00:16:54.123Z,48.44
2022-11-18T00:19:25.103Z,48.57
2022-11-18T00:21:53.959Z,48.37
2022-11-18T00:24:22.876Z,48.71
2022-11-18T00:26:51.580Z,48.45
2022-11-18T00:29:22.359Z,48.57
2022-11-18T00:31:51.262Z,48.48
2022-11-18T00:34:20.244Z,48.49
2022-11-18T00:36:49.697Z,48.55
2022-11-18T00:39:20.776Z,48.49
2022-11-18T00:42:07.562Z,48.53
2022-11-18T00:44:37.368Z,48.59
2022-11-18T00:47:06.367Z,48.57
2022-11-18T00:49:34.733Z,48.54
2022-11-18T00:52:03.168Z,48.45
2022-11-18T00:54:31.544Z,48.59
2022-11-18T00:56:59.927Z,48.64
2022-11-18T00:59:28.316Z,48.64
2022-11-18T01:01:58.059Z,48.76
2022-11-18T01:04:26.444Z,48.85
2022-11-18T01:06:54.867Z,48.81
2022-11-18T01:09:23.348Z,48.71
2022-11-18T01:12:09.261Z,48.65
2022-11-18T01:14:37.631Z,48.89
2022-11-18T01:17:08.054Z,48.74
2022-11-18T01:19:36.594Z,48.83
2022-11-18T01:22:05.337Z,48.85
2022-11-18T01:24:34.867Z,48.97
2022-11-18T01:27:03.861Z,48.99
2022-11-18T01:29:32.255Z,49.00
2022-11-18T01:34:50.393Z,48.89
2022-11-18T01:37:19.071Z,48.80
2022-11-18T01:39:47.436Z,48.95
2022-11-18T01:42:18.131Z,48.86
2022-11-18T01:45:10.643Z,49.03
2022-11-18T01:47:45.820Z,49.05
2022-11-18T01:50:17.941Z,48.97
2022-11-18T01:52:51.485Z,48.93
2022-11-18T01:55:25.722Z,48.81
2022-11-18T01:58:04.762Z,49.00
2022-11-18T02:00:33.140Z,49.10
2022-11-18T02:03:03.305Z,49.09
2022-11-18T02:05:34.855Z,49.29
2022-11-18T02:08:04.335Z,49.24
2022-11-18T02:10:32.807Z,49.23
2022-11-18T02:13:01.766Z,49.37
2022-11-18T02:15:50.458Z,49.50
2022-11-18T02:18:32.122Z,49.66
2022-11-18T02:21:20.472Z,49.65
2022-11-18T02:24:28.506Z,49.79
2022-11-18T02:27:47.950Z,49.76
2022-11-18T02:30:19.858Z,49.85
2022-11-18T02:32:55.770Z,50.03
2022-11-18T02:35:30.520Z,49.54
2022-11-18T02:38:03.731Z,49.86
2022-11-18T02:40:37.113Z,49.92
2022-11-18T02:43:10.480Z,49.97
2022-11-18T02:45:46.722Z,49.96
2022-11-18T02:48:18.205Z,49.94
2022-11-18T02:50:50.684Z,50.10
2022-11-18T02:53:23.037Z,50.05
2022-11-18T02:55:52.192Z,50.10
2022-11-18T02:58:22.602Z,50.19
2022-11-18T03:00:57.782Z,50.28
2022-11-18T03:03:30.138Z,50.18
2022-11-18T03:06:12.724Z,50.22
2022-11-18T03:08:45.942Z,50.14
2022-11-18T03:11:21.458Z,50.18
2022-11-18T03:14:10.643Z,50.47
2022-11-18T03:16:46.818Z,50.49
2022-11-18T03:19:24.147Z,50.48
2022-11-18T03:22:05.866Z,50.71
2022-11-18T03:24:38.688Z,50.85
2022-11-18T03:27:13.912Z,50.79
2022-11-18T03:29:50.421Z,50.91
2022-11-18T03:32:25.901Z,50.82
2022-11-18T03:35:00.612Z,51.11
2022-11-18T03:37:34.218Z,51.41
2022-11-18T03:40:12.548Z,51.30
2022-11-18T03:42:45.714Z,51.43
2022-11-18T03:45:20.994Z,51.43
2022-11-18T03:47:57.639Z,51.43
2022-11-18T03:50:33.254Z,51.38
2022-11-18T03:53:04.369Z,51.44
2022-11-18T03:55:40.833Z,51.58
2022-11-18T03:58:15.271Z,51.53
2022-11-18T04:00:49.726Z,51.61
2022-11-18T04:03:19.632Z,51.55
2022-11-18T04:05:52.948Z,51.85
2022-11-18T04:08:28.527Z,51.90
2022-11-18T04:11:04.394Z,51.96
2022-11-18T04:13:36.537Z,51.97
2022-11-18T04:16:09.848Z,52.14
2022-11-18T04:18:39.610Z,52.28
2022-11-18T04:21:08.523Z,52.21
2022-11-18T04:23:36.853Z,52.13
2022-11-18T04:26:05.238Z,52.10
2022-11-18T04:28:33.595Z,51.99
2022-11-18T04:31:02.023Z,52.02
2022-11-18T04:33:30.466Z,51.97
2022-11-18T04:36:00.210Z,52.13
2022-11-18T04:38:28.562Z,52.06
2022-11-18T04:40:56.947Z,51.84
2022-11-18T04:43:25.305Z,51.86
2022-11-18T04:45:53.681Z,51.95
2022-11-18T04:48:22.025Z,51.95
2022-11-18T04:50:50.369Z,51.90
2022-11-18T04:53:20.060Z,52.02
2022-11-18T04:55:48.413Z,52.10
2022-11-18T04:58:16.739Z,52.15
2022-11-18T05:00:45.152Z,52.02
2022-11-18T05:03:13.560Z,52.05
2022-11-18T05:05:41.940Z,52.15
2022-11-18T05:08:10.296Z,52.02
2022-11-18T05:10:41.277Z,51.95
2022-11-18T05:13:08.606Z,52.01
2022-11-18T05:15:36.957Z,51.96
2022-11-18T05:18:05.492Z,52.06
2022-11-18T05:20:38.720Z,52.10
2022-11-18T05:23:09.601Z,52.16
2022-11-18T05:25:37.951Z,52.25
2022-11-18T05:28:07.711Z,52.15
2022-11-18T05:30:36.092Z,52.14
2022-11-18T05:33:04.459Z,52.18
2022-11-18T05:35:32.844Z,52.18
2022-11-18T05:38:03.078Z,52.23
2022-11-18T05:40:31.616Z,52.07
2022-11-18T05:43:14.170Z,52.07
2022-11-18T05:45:45.546Z,52.14
2022-11-18T05:48:13.888Z,52.11
2022-11-18T05:50:42.258Z,52.15
2022-11-18T05:53:10.624Z,51.94
2022-11-18T05:55:47.997Z,52.00
2022-11-18T05:58:16.346Z,52.18
2022-11-18T06:00:50.213Z,52.14
2022-11-18T06:03:29.122Z,52.12
2022-11-18T06:06:03.062Z,52.06
2022-11-18T06:08:37.202Z,52.26
2022-11-18T06:11:07.044Z,52.18
2022-11-18T06:13:41.763Z,52.35
2022-11-18T06:16:14.159Z,52.27
2022-11-18T06:18:43.271Z,52.30
2022-11-18T06:21:11.771Z,52.57
2022-11-18T06:23:43.031Z,53.02
2022-11-18T06:26:12.384Z,52.54
2022-11-18T06:28:41.718Z,52.88
2022-11-18T06:31:11.474Z,52.75
2022-11-18T06:36:25.657Z,53.30
2022-11-18T06:38:54.018Z,53.36
2022-11-18T06:41:22.355Z,53.07
2022-11-18T06:43:50.726Z,53.52
2022-11-18T06:46:37.990Z,53.44
2022-11-18T06:49:06.388Z,53.64
2022-11-18T06:51:34.776Z,53.49
2022-11-18T06:54:09.084Z,53.49
2022-11-18T06:56:39.010Z,53.30
2022-11-18T06:59:07.831Z,53.43
2022-11-18T07:01:39.854Z,53.22
2022-11-18T07:04:08.244Z,53.37
2022-11-18T07:06:37.917Z,53.49
2022-11-18T07:09:08.392Z,53.46
2022-11-18T07:11:38.468Z,53.60
2022-11-18T07:14:06.841Z,53.57
2022-11-18T07:16:37.828Z,53.54
2022-11-18T07:19:11.673Z,53.49
2022-11-18T07:21:40.828Z,53.51
2022-11-18T07:24:10.976Z,53.56
2022-11-18T07:26:39.343Z,53.51
2022-11-18T07:29:07.772Z,53.57
2022-11-18T07:31:39.775Z,53.66
2022-11-18T07:34:08.682Z,53.34
2022-11-18T07:36:37.361Z,53.31
2022-11-18T07:39:07.834Z,53.30
2022-11-18T07:41:36.696Z,53.45
2022-11-18T07:44:07.575Z,53.50
2022-11-18T07:46:38.946Z,53.53
2022-11-18T07:49:09.942Z,53.57
2022-11-18T07:51:41.281Z,53.63
2022-11-18T07:54:11.401Z,53.54
2022-11-18T07:56:40.004Z,53.67
2022-11-18T07:59:08.827Z,53.70
2022-11-18T08:01:39.235Z,53.43
2022-11-18T08:04:09.884Z,53.47
2022-11-18T08:06:38.855Z,53.28
2022-11-18T08:09:08.921Z,53.30
2022-11-18T08:11:38.178Z,53.32
2022-11-18T08:14:06.577Z,53.17
2022-11-18T08:16:34.990Z,53.08
2022-11-18T08:19:04.916Z,53.10
2022-11-18T08:21:33.316Z,53.07
2022-11-18T08:24:01.724Z,52.93
2022-11-18T08:26:30.585Z,53.04
2022-11-18T08:28:59.475Z,53.01
2022-11-18T08:31:30.562Z,52.96
2022-11-18T08:34:00.698Z,52.87
2022-11-18T08:36:33.983Z,52.81
2022-11-18T08:39:06.241Z,52.67
2022-11-18T08:41:37.240Z,52.60
2022-11-18T08:44:07.509Z,52.63
2022-11-18T08:46:36.071Z,52.81
2022-11-18T08:49:04.632Z,52.59
2022-11-18T08:51:34.622Z,52.33
2022-11-18T08:54:03.308Z,52.33
2022-11-18T08:56:31.998Z,52.41
2022-11-18T08:59:00.403Z,52.42
2022-11-18T09:01:28.883Z,52.32
2022-11-18T09:03:57.874Z,52.32
2022-11-18T09:06:26.899Z,51.89
2022-11-18T09:08:59.584Z,51.85
2022-11-18T09:11:30.411Z,51.68
2022-11-18T09:14:53.526Z,51.71
2022-11-18T09:16:48.815Z,51.63
2022-11-18T09:19:46.171Z,51.67
2022-11-18T09:22:08.203Z,51.72
2022-11-18T09:24:38.274Z,51.67
2022-11-18T09:27:13.728Z,51.88
2022-11-18T09:29:44.985Z,51.80
2022-11-18T09:32:13.400Z,51.89
2022-11-18T09:34:41.832Z,51.82
2022-11-18T09:37:10.227Z,51.72
2022-11-18T09:39:40.033Z,51.41
2022-11-18T09:42:32.177Z,50.97
2022-11-18T09:45:22.377Z,50.92
2022-11-18T09:47:52.857Z,50.93
2022-11-18T09:53:21.815Z,51.39
2022-11-18T09:55:53.683Z,51.66
2022-11-18T09:58:30.731Z,51.66
2022-11-18T10:00:59.355Z,51.95
2022-11-18T10:03:30.806Z,52.33
2022-11-18T10:06:07.314Z,52.44
2022-11-18T10:08:46.675Z,52.84
2022-11-18T10:11:20.991Z,53.11
2022-11-18T10:14:01.524Z,53.15
2022-11-18T10:16:45.058Z,53.54
2022-11-18T10:19:29.303Z,53.59
2022-11-18T10:22:22.696Z,53.73
2022-11-18T10:24:54.611Z,53.99
2022-11-18T10:27:28.496Z,53.99
2022-11-18T10:29:59.566Z,53.96
2022-11-18T10:32:28.025Z,54.02
2022-11-18T10:34:58.762Z,54.06
2022-11-18T10:40:27.054Z,53.99
2022-11-18T10:42:57.214Z,53.94
2022-11-18T10:45:29.410Z,53.99
2022-11-18T10:48:08.212Z,53.96
2022-11-18T10:50:39.080Z,53.96
2022-11-18T10:53:28.440Z,53.95
2022-11-18T10:56:02.167Z,53.89
2022-11-18T10:58:32.902Z,53.73
2022-11-18T11:01:08.307Z,53.78
2022-11-18T11:03:40.108Z,53.80
2022-11-18T11:06:34.880Z,53.90
2022-11-18T11:09:10.202Z,53.95
2022-11-18T11:11:43.654Z,53.88
2022-11-18T11:14:34.159Z,54.09
2022-11-18T11:17:10.481Z,53.84
2022-11-18T11:19:50.486Z,53.77
2022-11-18T11:22:19.245Z,53.69
2022-11-18T11:24:48.510Z,53.54
2022-11-18T11:30:49.245Z,53.44
2022-11-18T11:33:40.375Z,53.56
2022-11-18T11:36:25.084Z,53.50
2022-11-18T11:39:20.036Z,53.39
2022-11-18T11:42:02.220Z,53.39
2022-11-18T11:44:50.983Z,53.17
2022-11-18T11:47:50.580Z,53.15
2022-11-18T11:50:29.609Z,53.13
2022-11-18T11:53:18.575Z,52.95
2022-11-18T11:56:01.451Z,53.05
2022-11-18T11:58:52.372Z,52.77
2022-11-18T12:01:32.751Z,52.92
2022-11-18T12:04:16.206Z,52.87
2022-11-18T12:06:48.131Z,52.52
2022-11-18T12:09:27.704Z,52.54
2022-11-18T12:12:03.756Z,52.57
2022-11-18T12:14:42.055Z,52.72
2022-11-18T12:17:23.188Z,52.62
2022-11-18T12:19:51.622Z,52.69
2022-11-18T12:22:20.008Z,52.76
2022-11-18T12:24:48.413Z,52.50
2022-11-18T12:28:00.291Z,52.68
2022-11-18T12:30:28.691Z,52.47
2022-11-18T12:32:59.060Z,52.65
2022-11-18T12:35:29.942Z,52.32
2022-11-18T12:38:05.446Z,52.31
2022-11-18T12:40:47.392Z,52.16
2022-11-18T12:44:06.009Z,52.12
2022-11-18T12:46:55.386Z,52.27
2022-11-18T12:50:16.075Z,52.28
2022-11-18T12:52:55.274Z,52.40
2022-11-18T12:55:39.242Z,52.34
2022-11-18T12:58:24.895Z,52.21
2022-11-18T13:01:07.802Z,52.09
2022-11-18T13:03:36.296Z,52.09
2022-11-18T13:06:22.673Z,52.12
2022-11-18T13:08:55.843Z,52.01
2022-11-18T13:11:43.753Z,51.95
2022-11-18T13:14:36.865Z,51.98
2022-11-18T13:17:39.552Z,52.12
2022-11-18T13:20:23.227Z,51.94
2022-11-18T13:23:14.640Z,52.04
2022-11-18T13:25:45.732Z,52.14
2022-11-18T13:28:26.828Z,52.08
2022-11-18T13:31:02.935Z,52.39
2022-11-18T13:33:36.006Z,51.97
2022-11-18T13:36:04.551Z,52.29
2022-11-18T13:38:35.048Z,52.25
2022-11-18T13:41:08.237Z,52.27
2022-11-18T13:43:37.593Z,52.29
2022-11-18T13:46:11.341Z,52.47
2022-11-18T13:48:48.147Z,52.49
2022-11-18T13:51:16.729Z,52.41
2022-11-18T13:53:46.771Z,52.39
2022-11-18T13:56:24.094Z,52.46
2022-11-18T13:59:18.115Z,52.30
2022-11-18T14:01:48.316Z,52.28
2022-11-18T14:04:22.621Z,51.99
2022-11-18T14:06:52.341Z,52.25
2022-11-18T14:09:27.660Z,52.12
2022-11-18T14:14:46.619Z,52.31
2022-11-18T14:17:21.254Z,52.38
2022-11-18T14:19:52.377Z,52.23
2022-11-18T14:22:24.263Z,52.38
2022-11-18T14:24:59.712Z,52.29
2022-11-18T14:27:39.277Z,52.23
2022-11-18T14:30:41.716Z,52.16
2022-11-18T14:33:25.142Z,52.27
2022-11-18T14:35:58.208Z,52.29
2022-11-18T14:41:48.391Z,52.07
2022-11-18T14:44:18.136Z,52.22
2022-11-18T14:46:52.259Z,52.02
2022-11-18T14:49:23.611Z,52.13
2022-11-18T14:51:52.806Z,52.08
2022-11-18T14:54:26.832Z,52.22
2022-11-18T14:57:01.868Z,52.51
2022-11-18T14:59:30.647Z,52.00
2022-11-18T15:01:59.724Z,52.35
2022-11-18T15:04:28.318Z,52.26
2022-11-18T15:06:56.819Z,52.26
2022-11-18T15:09:25.292Z,52.30
2022-11-18T15:11:53.795Z,52.35
2022-11-18T15:14:23.557Z,52.56
2022-11-18T15:16:51.948Z,52.49
2022-11-18T15:19:20.343Z,52.47
2022-11-18T15:21:48.827Z,52.13
2022-11-18T15:24:17.425Z,52.18
2022-11-18T15:26:48.354Z,52.42
2022-11-18T15:29:20.023Z,52.11
2022-11-18T15:31:50.556Z,52.26
2022-11-18T15:34:21.601Z,52.54
2022-11-18T15:36:50.792Z,52.45
2022-11-18T15:39:19.239Z,52.43
2022-11-18T15:41:48.928Z,51.94
2022-11-18T15:44:17.923Z,52.54
2022-11-18T15:46:48.107Z,52.57
2022-11-18T15:49:19.018Z,52.52
2022-11-18T15:51:47.669Z,52.67
2022-11-18T15:54:16.397Z,52.56
2022-11-18T15:56:45.186Z,52.83
2022-11-18T15:59:15.548Z,53.01
2022-11-18T16:01:46.554Z,52.96
2022-11-18T16:04:20.220Z,52.92
2022-11-18T16:06:50.156Z,53.37
2022-11-18T16:09:19.620Z,53.40
2022-11-18T16:12:05.757Z,53.46
2022-11-18T16:14:36.884Z,53.98
2022-11-18T16:17:05.282Z,53.83
2022-11-18T16:19:35.252Z,54.01
2022-11-18T16:22:03.688Z,54.05
2022-11-18T16:24:32.319Z,54.38
2022-11-18T16:27:04.522Z,54.61
2022-11-18T16:29:33.304Z,54.50
2022-11-18T16:32:01.900Z,54.45
2022-11-18T16:34:30.593Z,54.63
2022-11-18T16:37:01.412Z,54.72
2022-11-18T16:39:31.073Z,54.82
2022-11-18T16:42:08.056Z,55.22
2022-11-18T16:44:37.979Z,55.05
2022-11-18T16:47:14.252Z,55.27
2022-11-18T16:49:44.290Z,55.55
2022-11-18T16:52:15.023Z,55.67
2022-11-18T16:54:45.917Z,55.93
2022-11-18T16:57:15.725Z,55.87
2022-11-18T16:59:44.776Z,56.06
2022-11-18T17:02:15.420Z,56.15
2022-11-18T17:04:44.503Z,56.41
2022-11-18T17:07:14.787Z,56.35
2022-11-18T17:09:43.450Z,56.33
2022-11-18T17:12:12.778Z,56.26
2022-11-18T17:14:41.834Z,56.46
2022-11-18T17:17:10.788Z,56.35
2022-11-18T17:19:41.645Z,56.33
2022-11-18T17:22:10.741Z,56.57
2022-11-18T17:24:41.801Z,56.60
2022-11-18T17:27:10.960Z,56.81
2022-11-18T17:29:40.637Z,56.59
2022-11-18T17:32:10.220Z,56.85
2022-11-18T17:34:38.946Z,56.93
2022-11-18T17:37:07.868Z,56.94
2022-11-18T17:39:36.604Z,56.85
2022-11-18T17:42:19.141Z,56.98
2022-11-18T17:44:49.756Z,56.88
2022-11-18T17:47:18.589Z,56.95
2022-11-18T17:49:48.577Z,57.07
2022-11-18T17:52:18.601Z,57.26
2022-11-18T17:54:47.511Z,57.22
2022-11-18T17:57:17.854Z,57.19
2022-11-18T17:59:47.047Z,57.66
2022-11-18T18:02:18.848Z,57.55
2022-11-18T18:04:48.288Z,57.54
2022-11-18T18:07:17.395Z,57.81
2022-11-18T18:09:46.773Z,57.65
2022-11-18T18:12:35.823Z,57.47
2022-11-18T18:15:04.728Z,57.86
2022-11-18T18:17:34.111Z,57.84
2022-11-18T18:20:04.054Z,57.72
2022-11-18T18:22:33.332Z,57.71
2022-11-18T18:25:03.066Z,57.73
2022-11-18T18:27:34.952Z,57.64
2022-11-18T18:30:05.338Z,57.85
2022-11-18T18:32:34.605Z,57.80
2022-11-18T18:35:04.242Z,57.88
2022-11-18T18:37:33.738Z,57.98
2022-11-18T18:40:02.832Z,57.89
2022-11-18T18:42:33.758Z,57.82
2022-11-18T18:45:20.944Z,57.79
2022-11-18T18:47:49.834Z,57.92
2022-11-18T18:50:19.311Z,58.08
2022-11-18T18:52:48.648Z,58.05
2022-11-18T18:55:17.596Z,58.09
2022-11-18T18:57:48.471Z,58.12
2022-11-18T19:00:19.217Z,57.67
2022-11-18T19:02:50.213Z,58.31
2022-11-18T19:05:38.335Z,58.54
2022-11-18T19:08:11.224Z,58.32
2022-11-18T19:10:43.534Z,58.37
2022-11-18T19:13:13.142Z,58.32
2022-11-18T19:15:42.731Z,58.34
2022-11-18T19:18:12.195Z,58.45
2022-11-18T19:20:48.463Z,58.23
2022-11-18T19:23:18.361Z,58.15
2022-11-18T19:25:48.017Z,58.19
2022-11-18T19:28:19.421Z,58.39
2022-11-18T19:30:48.640Z,58.46
2022-11-18T19:33:17.758Z,58.44
2022-11-18T19:35:46.870Z,58.55
2022-11-18T19:38:16.884Z,58.67
2022-11-18T19:40:46.059Z,58.55
2022-11-18T19:43:15.457Z,58.40
2022-11-18T19:45:54.484Z,58.50
2022-11-18T19:48:24.866Z,58.42
2022-11-18T19:50:55.002Z,58.67
2022-11-18T19:53:33.734Z,58.64
2022-11-18T19:56:05.330Z,58.72
2022-11-18T19:58:36.585Z,58.67
2022-11-18T20:01:18.436Z,58.67
2022-11-18T20:03:50.586Z,58.67
2022-11-18T20:06:21.693Z,58.92
2022-11-18T20:08:53.050Z,58.94
2022-11-18T20:11:24.325Z,58.66
2022-11-18T20:13:54.329Z,58.74
2022-11-18T20:16:29.247Z,58.91
2022-11-18T20:19:02.879Z,58.87
2022-11-18T20:21:35.795Z,58.94
2022-11-18T20:24:12.721Z,58.84
2022-11-18T20:26:44.386Z,59.03
2022-11-18T20:29:15.290Z,58.65
2022-11-18T20:31:46.221Z,58.69
2022-11-18T20:34:17.669Z,58.79
2022-11-18T20:36:48.122Z,58.83
2022-11-18T20:39:18.852Z,58.75
2022-11-18T20:42:12.279Z,58.89
2022-11-18T20:44:41.504Z,59.00
2022-11-18T20:47:12.207Z,59.32
2022-11-18T20:49:41.294Z,59.30
2022-11-18T20:52:10.125Z,59.12
2022-11-18T20:54:39.188Z,59.24
2022-11-18T20:57:09.618Z,59.32
2022-11-18T20:59:38.585Z,59.51
2022-11-18T21:02:07.482Z,59.41
2022-11-18T21:04:38.524Z,59.46
2022-11-18T21:07:07.492Z,59.18
2022-11-18T21:09:36.459Z,58.86
2022-11-18T21:12:05.957Z,58.93
2022-11-18T21:14:34.057Z,58.62
2022-11-18T21:17:02.868Z,58.68
2022-11-18T21:19:33.925Z,58.68
2022-11-18T21:22:03.381Z,58.71
2022-11-18T21:24:35.423Z,58.92
2022-11-18T21:27:05.515Z,58.86
2022-11-18T21:29:34.839Z,58.80
2022-11-18T21:32:06.418Z,58.91
2022-11-18T21:34:35.015Z,58.86
2022-11-18T21:37:05.764Z,58.71
2022-11-18T21:39:34.197Z,58.79
2022-11-18T21:42:03.227Z,58.53
2022-11-18T21:44:31.720Z,58.51
2022-11-18T21:47:00.206Z,58.30
2022-11-18T21:49:28.737Z,58.20
2022-11-18T21:51:57.142Z,58.29
2022-11-18T21:54:26.883Z,58.02
2022-11-18T21:56:55.320Z,57.84
2022-11-18T21:59:23.929Z,57.33
2022-11-18T22:01:52.341Z,57.43
2022-11-18T22:04:34.569Z,57.49
2022-11-18T22:07:03.059Z,57.48
2022-11-18T22:09:36.436Z,57.07
2022-11-18T22:12:07.843Z,57.04
2022-11-18T22:14:36.454Z,57.18
2022-11-18T22:17:05.252Z,57.36
2022-11-18T22:19:33.679Z,57.26
2022-11-18T22:22:02.208Z,57.02
2022-11-18T22:24:31.964Z,56.95
2022-11-18T22:27:00.333Z,56.61
2022-11-18T22:29:28.677Z,56.70
2022-11-18T22:31:57.297Z,56.66
2022-11-18T22:34:25.773Z,56.76
2022-11-18T22:36:54.105Z,56.55
2022-11-18T22:39:22.644Z,56.42
2022-11-18T22:42:09.952Z,56.10
2022-11-18T22:44:38.310Z,56.16
2022-11-18T22:47:06.746Z,56.26
2022-11-18T22:49:35.121Z,56.31
2022-11-18T22:52:03.521Z,56.19
2022-11-18T22:54:38.702Z,56.07
2022-11-18T22:57:09.435Z,55.78
2022-11-18T22:59:38.031Z,55.92
2022-11-18T23:02:06.987Z,56.02
2022-11-18T23:04:35.595Z,55.54
2022-11-18T23:07:04.143Z,55.45
2022-11-18T23:09:32.628Z,55.25
2022-11-18T23:12:18.190Z,55.28
2022-11-18T23:14:48.013Z,55.14
2022-11-18T23:17:16.383Z,55.04
2022-11-18T23:19:45.606Z,54.97
2022-11-18T23:22:14.855Z,54.81
2022-11-18T23:24:43.237Z,54.68
2022-11-18T23:27:11.610Z,54.65
2022-11-18T23:29:40.069Z,54.64
2022-11-18T23:32:09.767Z,54.54
2022-11-18T23:34:38.142Z,54.62
2022-11-18T23:37:06.506Z,54.49
2022-11-18T23:39:34.891Z,54.55
2022-11-18T23:42:03.275Z,54.46
2022-11-18T23:44:46.789Z,54.34
2022-11-18T23:47:16.565Z,54.29
2022-11-18T23:49:44.951Z,54.22
2022-11-18T23:52:14.973Z,53.83
2022-11-18T23:54:43.361Z,53.76
2022-11-18T23:57:11.720Z,53.58
2022-11-18T23:59:40.109Z,53.39
